PWSweather.com
Personal Weather Stations
Station Observations

AwhituWaiuku, CA 268400

Lat: -37.058, Lon: -174.6346

Elevation: 250

Station Type: Personal

http://www.weather-display.com/windy/gb/grahamsbeach.htm

Latest ConditionsUpdated 10:00:02 AM GMT-12:48 Thursday, Jul 28, 2016
Currently Today's Max Today's Min Today's Average
Temperature 56.5°F13.6°C 56.5°F13.6°C 52.1°F11.2°C 55.3°F12.9°C
Dew Point 51.4°F10.8°C 52.0°F11.1°C 44.6°F7.0°C 48.7°F9.3°C
Winds 40.3 mph WSW64.9 kmh WSW 47.2 mph W76.0 kmh W - 36.8 mph 59.2 kmh
Wind Gusts 48.3 mph77.7 kmh 52.9 mph85.1 kmh - -
Humidity 83% 89% 66% 79%
Pressure 29.63 in1003.4 mb 29.63 in1003.4 mb 29.60 in1002.4 mb -
Precipitation - 0.03 in0.8 mm - -
Hour Temp Dew Point Humidity Winds Wind Gusts Pressure Precip Precip Rate Daily Precip Total
10:00 AM 56.5°F13.6°C 51.4°F10.8°C 83% 40.3 mph WSW64.9 kmh WSW 48.3 mph77.7 kmh 29.63 in1003.4 mb - 0.00 in0.0 mm 0.03 in0.8 mm
09:30 AM 56.1°F13.4°C 51.3°F10.7°C 84% 38.0 mph WSW61.2 kmh WSW 43.7 mph70.3 kmh 29.62 in1003.0 mb - 0.00 in0.0 mm 0.03 in0.8 mm
09:00 AM 55.2°F12.9°C 52.0°F11.1°C 89% 47.2 mph W76.0 kmh W 52.9 mph85.1 kmh 29.60 in1002.4 mb - 0.02 in0.5 mm 0.03 in0.8 mm
08:30 AM 55.1°F12.8°C 51.0°F10.6°C 86% 41.4 mph WSW66.6 kmh WSW 43.7 mph70.3 kmh 29.60 in1002.4 mb - 0.00 in0.0 mm 0.01 in0.3 mm
08:00 AM 54.2°F12.3°C 49.5°F9.7°C 84% 32.2 mph WNW51.8 kmh WNW 48.3 mph77.7 kmh 29.61 in1002.7 mb - 0.00 in0.0 mm 0.01 in0.3 mm
07:30 AM 55.7°F13.2°C 49.3°F9.6°C 79% 29.9 mph W48.1 kmh W 41.4 mph66.6 kmh 29.62 in1003.0 mb - 0.00 in0.0 mm 0.01 in0.3 mm
07:00 AM 55.8°F13.2°C 48.7°F9.3°C 77% 41.4 mph WSW66.6 kmh WSW 44.9 mph72.3 kmh 29.62 in1003.0 mb - 0.00 in0.0 mm 0.01 in0.3 mm
06:30 AM 55.3°F12.9°C 49.2°F9.6°C 80% 29.9 mph W48.1 kmh W 36.8 mph59.2 kmh 29.63 in1003.4 mb - 0.00 in0.0 mm 0.01 in0.3 mm
06:00 AM 55.5°F13.1°C 48.8°F9.3°C 78% 31.1 mph W50.1 kmh W 43.7 mph70.3 kmh 29.62 in1003.0 mb - 0.00 in0.0 mm 0.01 in0.3 mm
05:30 AM 54.4°F12.4°C 47.7°F8.7°C 78% 39.1 mph WSW62.9 kmh WSW 42.6 mph68.6 kmh 29.62 in1003.0 mb - 0.00 in0.0 mm 0.01 in0.3 mm
05:00 AM 54.5°F12.5°C 48.4°F9.1°C 80% 35.7 mph WSW57.5 kmh WSW 41.4 mph66.6 kmh 29.62 in1003.0 mb - 0.00 in0.0 mm 0.01 in0.3 mm
04:30 AM 55.9°F13.3°C 47.3°F8.5°C 73% 29.9 mph WSW48.1 kmh WSW 36.8 mph59.2 kmh 29.63 in1003.4 mb - 0.00 in0.0 mm 0.01 in0.3 mm
04:00 AM 55.8°F13.2°C 48.0°F8.9°C 75% 33.4 mph WSW53.8 kmh WSW 40.3 mph64.9 kmh 29.62 in1003.0 mb - 0.00 in0.0 mm 0.01 in0.3 mm
03:30 AM 55.9°F13.3°C 48.4°F9.1°C 76% 38.0 mph WSW61.2 kmh WSW 46.0 mph74.0 kmh 29.62 in1003.0 mb - 0.00 in0.0 mm 0.01 in0.3 mm
03:00 AM 56.0°F13.3°C 46.7°F8.2°C 71% 36.8 mph WSW59.2 kmh WSW 44.9 mph72.3 kmh 29.62 in1003.0 mb - 0.00 in0.0 mm 0.01 in0.3 mm
02:30 AM 55.7°F13.2°C 45.3°F7.4°C 68% 39.1 mph WSW62.9 kmh WSW 48.3 mph77.7 kmh 29.63 in1003.4 mb - 0.00 in0.0 mm 0.01 in0.3 mm
02:00 AM 55.8°F13.2°C 44.6°F7.0°C 66% 36.8 mph WSW59.2 kmh WSW 44.9 mph72.3 kmh 29.62 in1003.0 mb - 0.00 in0.0 mm 0.01 in0.3 mm
01:30 AM 55.5°F13.1°C 48.4°F9.1°C 77% 40.3 mph WSW64.9 kmh WSW 48.3 mph77.7 kmh 29.62 in1003.0 mb - 0.00 in0.0 mm 0.01 in0.3 mm
01:00 AM 55.4°F13.0°C 49.4°F9.7°C 80% 39.1 mph WSW62.9 kmh WSW 44.9 mph72.3 kmh 29.62 in1003.0 mb - 0.00 in0.0 mm 0.01 in0.3 mm
12:30 AM 53.9°F12.2°C 49.5°F9.7°C 85% 40.3 mph WSW64.9 kmh WSW 49.5 mph79.7 kmh 29.62 in1003.0 mb - 0.00 in0.0 mm 0.01 in0.3 mm
12:00 AM 52.1°F11.2°C 47.7°F8.7°C 85% 33.4 mph WSW53.8 kmh WSW 44.9 mph72.3 kmh 29.62 in1003.0 mb - 0.01 in0.3 mm 0.01 in0.3 mm